createdAt,value
2023-03-12T00:01:23.109Z,22.62
2023-03-12T00:03:53.957Z,22.59
2023-03-12T00:06:22.487Z,22.55
2023-03-12T00:08:51.561Z,22.52
2023-03-12T00:11:21.010Z,22.49
2023-03-12T00:13:54.440Z,22.46
2023-03-12T00:16:23.969Z,22.44
2023-03-12T00:18:53.900Z,22.43
2023-03-12T00:21:23.666Z,22.41
2023-03-12T00:23:52.626Z,22.39
2023-03-12T00:26:22.169Z,22.37
2023-03-12T00:28:51.992Z,22.35
2023-03-12T00:31:23.999Z,22.33
2023-03-12T00:33:52.226Z,22.30
2023-03-12T00:36:22.710Z,22.28
2023-03-12T00:38:52.506Z,22.25
2023-03-12T00:41:22.365Z,22.22
2023-03-12T00:43:52.219Z,22.20
2023-03-12T00:46:21.592Z,22.20
2023-03-12T00:48:50.735Z,22.17
2023-03-12T00:51:19.615Z,22.14
2023-03-12T00:53:48.425Z,22.12
2023-03-12T00:56:16.794Z,22.10
2023-03-12T00:58:44.950Z,22.06
2023-03-12T01:03:47.080Z,22.05
2023-03-12T01:06:15.452Z,22.01
2023-03-12T01:08:44.565Z,21.99
2023-03-12T01:11:15.411Z,21.98
2023-03-12T01:13:43.712Z,21.96
2023-03-12T01:16:12.398Z,21.93
2023-03-12T01:18:41.517Z,21.91
2023-03-12T01:21:09.850Z,21.90
2023-03-12T01:23:38.213Z,21.88
2023-03-12T01:26:06.717Z,21.86
2023-03-12T01:28:35.346Z,21.84
2023-03-12T01:31:11.808Z,21.83
2023-03-12T01:33:40.467Z,21.81
2023-03-12T01:36:26.683Z,21.80
2023-03-12T01:38:57.891Z,21.79
2023-03-12T01:41:28.118Z,21.77
2023-03-12T01:43:56.410Z,21.74
2023-03-12T01:46:34.076Z,21.74
2023-03-12T01:49:10.350Z,21.71
2023-03-12T01:51:41.911Z,21.70
2023-03-12T01:54:17.178Z,21.68
2023-03-12T01:56:47.257Z,21.66
2023-03-12T01:59:25.370Z,21.65
2023-03-12T02:01:54.645Z,21.63
2023-03-12T02:04:26.353Z,21.60
2023-03-12T02:07:05.882Z,21.58
2023-03-12T02:09:38.665Z,21.57
2023-03-12T02:12:08.226Z,21.55
2023-03-12T02:14:38.069Z,21.54
2023-03-12T02:17:07.366Z,21.53
2023-03-12T02:19:49.055Z,21.52
2023-03-12T02:22:17.888Z,21.50
2023-03-12T02:24:56.610Z,21.49
2023-03-12T02:27:25.108Z,21.47
2023-03-12T02:29:53.466Z,21.44
2023-03-12T02:32:27.747Z,21.42
2023-03-12T02:34:57.179Z,21.39
2023-03-12T02:37:27.619Z,21.38
2023-03-12T02:40:21.897Z,21.35
2023-03-12T02:42:50.284Z,21.32
2023-03-12T02:45:18.808Z,21.31
2023-03-12T02:47:47.078Z,21.30
2023-03-12T02:50:18.140Z,21.31
2023-03-12T02:52:46.542Z,21.28
2023-03-12T02:55:14.857Z,21.28
2023-03-12T02:57:43.364Z,21.28
2023-03-12T03:00:13.964Z,21.28
2023-03-12T03:02:43.595Z,21.27
2023-03-12T03:05:12.810Z,21.26
2023-03-12T03:07:40.933Z,21.25
2023-03-12T03:10:10.157Z,21.24
2023-03-12T03:12:38.311Z,21.23
2023-03-12T03:15:07.888Z,21.23
2023-03-12T03:17:36.558Z,21.21
2023-03-12T03:20:06.338Z,21.19
2023-03-12T03:22:34.528Z,21.18
2023-03-12T03:25:03.128Z,21.17
2023-03-12T03:27:31.598Z,21.15
2023-03-12T03:30:00.381Z,21.14
2023-03-12T03:32:28.964Z,21.13
2023-03-12T03:34:57.341Z,21.13
2023-03-12T03:37:25.685Z,21.13
2023-03-12T03:39:53.805Z,21.11
2023-03-12T03:42:22.683Z,21.09
2023-03-12T03:44:51.046Z,21.10
2023-03-12T03:47:19.714Z,21.10
2023-03-12T03:49:48.003Z,21.10
2023-03-12T03:52:16.504Z,21.09
2023-03-12T03:54:45.082Z,21.09
2023-03-12T03:57:13.335Z,21.07
2023-03-12T03:59:41.579Z,21.06
2023-03-12T04:02:10.176Z,21.05
2023-03-12T04:04:38.656Z,21.04
2023-03-12T04:07:06.886Z,21.04
2023-03-12T04:09:35.428Z,21.03
2023-03-12T04:12:03.796Z,21.01
2023-03-12T04:14:32.048Z,21.00
2023-03-12T04:17:00.268Z,20.98
2023-03-12T04:19:28.404Z,20.96
2023-03-12T04:21:56.608Z,20.95
2023-03-12T04:24:25.353Z,20.92
2023-03-12T04:26:53.454Z,20.89
2023-03-12T04:29:21.662Z,20.87
2023-03-12T04:31:50.014Z,20.84
2023-03-12T04:34:18.359Z,20.80
2023-03-12T04:36:47.060Z,20.78
2023-03-12T04:39:21.833Z,20.76
2023-03-12T04:41:50.028Z,20.73
2023-03-12T04:44:18.377Z,20.71
2023-03-12T04:46:46.764Z,20.69
2023-03-12T04:49:14.944Z,20.69
2023-03-12T04:51:43.325Z,20.68
2023-03-12T04:54:12.348Z,20.65
2023-03-12T04:56:40.751Z,20.64
2023-03-12T04:59:09.457Z,20.64
2023-03-12T05:01:38.047Z,20.63
2023-03-12T05:04:07.247Z,20.62
2023-03-12T05:06:36.131Z,20.60
2023-03-12T05:09:04.374Z,20.58
2023-03-12T05:11:33.422Z,20.57
2023-03-12T05:14:01.591Z,20.55
2023-03-12T05:16:30.690Z,20.54
2023-03-12T05:18:59.182Z,20.52
2023-03-12T05:21:27.315Z,20.52
2023-03-12T05:23:56.101Z,20.51
2023-03-12T05:26:32.695Z,20.50
2023-03-12T05:29:02.690Z,20.48
2023-03-12T05:31:32.237Z,20.47
2023-03-12T05:34:01.263Z,20.44
2023-03-12T05:36:29.769Z,20.41
2023-03-12T05:38:57.892Z,20.39
2023-03-12T05:41:28.692Z,20.36
2023-03-12T05:43:58.288Z,20.33
2023-03-12T05:46:28.481Z,20.31
2023-03-12T05:48:56.675Z,20.29
2023-03-12T05:51:26.454Z,20.26
2023-03-12T05:53:54.918Z,20.25
2023-03-12T05:56:23.235Z,20.23
2023-03-12T05:58:51.525Z,20.22
2023-03-12T06:01:26.569Z,20.20
2023-03-12T06:03:55.763Z,20.19
2023-03-12T06:06:24.145Z,20.18
2023-03-12T06:08:52.904Z,20.15
2023-03-12T06:11:21.663Z,20.13
2023-03-12T06:13:49.794Z,20.09
2023-03-12T06:16:21.608Z,20.07
2023-03-12T06:18:54.026Z,20.04
2023-03-12T06:21:24.880Z,20.03
2023-03-12T06:23:53.264Z,20.04
2023-03-12T06:26:22.555Z,20.06
2023-03-12T06:28:51.885Z,20.07
2023-03-12T06:31:21.544Z,20.08
2023-03-12T06:33:50.144Z,20.08
2023-03-12T06:36:18.953Z,20.10
2023-03-12T06:38:47.109Z,20.14
2023-03-12T06:41:17.805Z,20.18
2023-03-12T06:43:47.093Z,20.23
2023-03-12T06:46:18.246Z,20.30
2023-03-12T06:48:47.705Z,20.39
2023-03-12T06:51:17.331Z,20.51
2023-03-12T06:53:46.416Z,20.73
2023-03-12T06:56:15.690Z,21.32
2023-03-12T06:58:44.981Z,21.83
2023-03-12T07:01:13.199Z,22.69
2023-03-12T07:03:41.349Z,23.84
2023-03-12T07:06:15.266Z,25.04
2023-03-12T07:08:44.065Z,26.00
2023-03-12T07:11:13.881Z,26.58
2023-03-12T07:13:42.458Z,26.57
2023-03-12T07:16:11.434Z,27.24
2023-03-12T07:18:39.815Z,28.22
2023-03-12T07:21:08.005Z,29.23
2023-03-12T07:23:36.470Z,30.17
2023-03-12T07:26:06.522Z,31.05
2023-03-12T07:28:34.742Z,31.95
2023-03-12T07:31:04.959Z,32.69
2023-03-12T07:33:33.746Z,33.43
2023-03-12T07:36:02.354Z,33.98
2023-03-12T07:38:31.164Z,34.51
2023-03-12T07:40:59.500Z,35.01
2023-03-12T07:43:27.814Z,34.82
2023-03-12T07:45:57.311Z,34.46
2023-03-12T07:48:25.672Z,34.65
2023-03-12T07:50:53.956Z,35.20
2023-03-12T07:53:22.348Z,36.05
2023-03-12T07:55:50.571Z,37.01
2023-03-12T07:58:19.009Z,37.97
2023-03-12T08:00:47.860Z,38.84
2023-03-12T08:03:16.462Z,39.44
2023-03-12T08:05:45.479Z,39.94
2023-03-12T08:08:14.103Z,40.32
2023-03-12T08:10:42.300Z,40.45
2023-03-12T08:13:10.630Z,40.46
2023-03-12T08:15:39.120Z,40.38
2023-03-12T08:18:07.223Z,40.29
2023-03-12T08:20:35.431Z,40.28
2023-03-12T08:23:03.862Z,40.42
2023-03-12T08:25:32.720Z,40.66
2023-03-12T08:28:00.954Z,40.89
2023-03-12T08:30:30.437Z,41.24
2023-03-12T08:32:58.796Z,41.48
2023-03-12T08:35:27.423Z,41.46
2023-03-12T08:37:55.780Z,41.45
2023-03-12T08:40:24.817Z,41.68
2023-03-12T08:42:53.299Z,41.91
2023-03-12T08:45:21.866Z,42.07
2023-03-12T08:47:50.194Z,42.37
2023-03-12T08:50:18.785Z,42.64
2023-03-12T08:52:48.724Z,42.81
2023-03-12T08:55:17.007Z,41.97
2023-03-12T08:57:45.107Z,40.84
2023-03-12T09:00:14.707Z,39.64
2023-03-12T09:02:47.312Z,38.54
2023-03-12T09:05:16.019Z,37.64
2023-03-12T09:07:44.068Z,36.81
2023-03-12T09:10:12.241Z,35.97
2023-03-12T09:12:40.708Z,35.31
2023-03-12T09:15:09.679Z,34.73
2023-03-12T09:17:38.796Z,34.28
2023-03-12T09:20:09.459Z,33.90
2023-03-12T09:22:37.620Z,33.50
2023-03-12T09:25:07.001Z,33.02
2023-03-12T09:27:40.809Z,32.39
2023-03-12T09:30:14.401Z,31.79
2023-03-12T09:32:43.744Z,31.50
2023-03-12T09:35:14.342Z,31.34
2023-03-12T09:37:44.085Z,31.06
2023-03-12T09:40:18.715Z,30.81
2023-03-12T09:42:53.929Z,30.64
2023-03-12T09:45:26.203Z,30.16
2023-03-12T09:48:01.073Z,29.46
2023-03-12T09:50:38.202Z,28.97
2023-03-12T09:53:18.919Z,28.79
2023-03-12T09:55:54.403Z,28.67
2023-03-12T09:58:28.468Z,28.70
2023-03-12T10:01:49.639Z,28.68
2023-03-12T10:04:48.748Z,28.81
2023-03-12T10:07:33.014Z,28.94
2023-03-12T10:10:24.187Z,28.91
2023-03-12T10:13:24.808Z,28.84
2023-03-12T10:16:07.435Z,28.91
2023-03-12T10:18:57.647Z,29.05
2023-03-12T10:21:33.714Z,29.20
2023-03-12T10:24:20.418Z,29.30
2023-03-12T10:26:55.402Z,29.36
2023-03-12T10:29:31.133Z,29.42
2023-03-12T10:32:16.986Z,29.51
2023-03-12T10:34:56.409Z,29.65
2023-03-12T10:37:40.277Z,29.76
2023-03-12T10:40:16.358Z,29.76
2023-03-12T10:42:44.922Z,29.90
2023-03-12T10:45:41.238Z,30.01
2023-03-12T10:48:17.648Z,30.14
2023-03-12T10:51:05.767Z,30.22
2023-03-12T10:53:39.400Z,30.27
2023-03-12T10:56:11.892Z,30.33
2023-03-12T10:58:49.530Z,30.34
2023-03-12T11:01:26.709Z,30.23
2023-03-12T11:04:18.660Z,30.14
2023-03-12T11:07:18.747Z,30.06
2023-03-12T11:10:23.293Z,30.03
2023-03-12T11:12:57.291Z,30.12
2023-03-12T11:15:27.819Z,30.18
2023-03-12T11:18:21.348Z,30.17
2023-03-12T11:20:52.282Z,30.22
2023-03-12T11:23:31.166Z,30.30
2023-03-12T11:26:05.730Z,30.32
2023-03-12T11:28:40.760Z,30.02
2023-03-12T11:31:22.121Z,29.82
2023-03-12T11:33:54.153Z,29.81
2023-03-12T11:36:40.188Z,29.88
2023-03-12T11:39:14.460Z,29.99
2023-03-12T11:42:21.249Z,30.08
2023-03-12T11:45:04.503Z,30.06
2023-03-12T11:47:54.596Z,30.05
2023-03-12T11:51:02.166Z,30.15
2023-03-12T11:54:15.982Z,30.11
2023-03-12T11:56:53.736Z,30.02
2023-03-12T11:59:26.300Z,30.06
2023-03-12T12:02:23.024Z,30.11
2023-03-12T12:05:14.003Z,30.19
2023-03-12T12:08:19.997Z,30.04
2023-03-12T12:11:00.556Z,29.99
2023-03-12T12:13:41.383Z,30.03
2023-03-12T12:16:25.112Z,30.05
2023-03-12T12:19:20.502Z,30.01
2023-03-12T12:22:17.584Z,29.64
2023-03-12T12:25:17.109Z,29.26
2023-03-12T12:27:54.525Z,28.99
2023-03-12T12:30:31.404Z,28.85
2023-03-12T12:33:39.823Z,29.02
2023-03-12T12:36:11.603Z,29.18
2023-03-12T12:38:55.655Z,29.36
2023-03-12T12:41:31.826Z,29.55
2023-03-12T12:44:05.594Z,29.61
2023-03-12T12:46:40.239Z,29.63
2023-03-12T12:49:14.326Z,29.74
2023-03-12T12:51:48.839Z,29.92
2023-03-12T12:54:43.624Z,30.03
2023-03-12T12:57:18.428Z,30.15
2023-03-12T13:00:03.213Z,30.25
2023-03-12T13:02:33.238Z,30.28
2023-03-12T13:05:01.946Z,30.29
2023-03-12T13:07:33.388Z,30.38
2023-03-12T13:10:07.496Z,30.46
2023-03-12T13:12:55.442Z,30.57
2023-03-12T13:15:35.156Z,30.73
2023-03-12T13:18:28.992Z,30.85
2023-03-12T13:21:12.481Z,30.83
2023-03-12T13:23:49.735Z,30.87
2023-03-12T13:26:20.861Z,30.89
2023-03-12T13:29:11.905Z,30.84
2023-03-12T13:31:42.846Z,30.79
2023-03-12T13:34:23.068Z,30.71
2023-03-12T13:36:53.082Z,30.63
2023-03-12T13:39:36.168Z,30.69
2023-03-12T13:42:36.328Z,30.76
2023-03-12T13:45:28.885Z,30.80
2023-03-12T13:48:00.932Z,30.81
2023-03-12T13:50:31.490Z,30.86
2023-03-12T13:53:07.254Z,30.86
2023-03-12T13:55:38.364Z,30.90
2023-03-12T13:58:16.797Z,30.90
2023-03-12T14:01:01.763Z,30.83
2023-03-12T14:03:33.957Z,30.72
2023-03-12T14:06:05.446Z,30.41
2023-03-12T14:09:00.910Z,30.10
2023-03-12T14:11:40.745Z,29.98
2023-03-12T14:14:38.252Z,29.94
2023-03-12T14:17:14.366Z,29.99
2023-03-12T14:19:47.938Z,30.03
2023-03-12T14:22:18.595Z,29.97
2023-03-12T14:25:01.472Z,29.88
2023-03-12T14:27:34.001Z,29.90
2023-03-12T14:30:20.339Z,29.95
2023-03-12T14:32:53.112Z,29.94
2023-03-12T14:35:58.532Z,29.90
2023-03-12T14:38:36.517Z,29.77
2023-03-12T14:41:30.094Z,29.56
2023-03-12T14:44:06.358Z,29.54
2023-03-12T14:46:34.658Z,29.57
2023-03-12T14:49:03.257Z,29.58
2023-03-12T14:51:36.213Z,29.53
2023-03-12T14:54:04.825Z,29.59
2023-03-12T14:56:34.457Z,29.53
2023-03-12T14:59:26.465Z,29.44
2023-03-12T15:02:18.030Z,29.41
2023-03-12T15:04:49.012Z,29.14
2023-03-12T15:07:24.861Z,28.91
2023-03-12T15:09:53.986Z,28.88
2023-03-12T15:12:25.483Z,28.84
2023-03-12T15:15:02.154Z,28.86
2023-03-12T15:17:32.376Z,28.79
2023-03-12T15:20:05.803Z,28.78
2023-03-12T15:22:35.030Z,28.70
2023-03-12T15:25:27.200Z,28.64
2023-03-12T15:28:14.996Z,28.60
2023-03-12T15:30:44.377Z,28.64
2023-03-12T15:33:23.278Z,28.57
2023-03-12T15:36:15.918Z,28.48
2023-03-12T15:38:50.770Z,28.40
2023-03-12T15:41:23.457Z,28.34
2023-03-12T15:43:55.809Z,28.36
2023-03-12T15:46:26.299Z,28.26
2023-03-12T15:49:00.515Z,28.17
2023-03-12T15:51:35.764Z,28.00
2023-03-12T15:54:27.800Z,27.82
2023-03-12T15:57:18.328Z,27.76
2023-03-12T16:00:16.715Z,27.84
2023-03-12T16:02:55.301Z,27.92
2023-03-12T16:05:27.611Z,27.90
2023-03-12T16:07:56.671Z,27.84
2023-03-12T16:10:26.721Z,27.78
2023-03-12T16:13:02.963Z,27.76
2023-03-12T16:15:36.433Z,27.73
2023-03-12T16:18:05.808Z,27.68
2023-03-12T16:20:34.031Z,27.68
2023-03-12T16:23:02.260Z,27.65
2023-03-12T16:25:30.802Z,27.51
2023-03-12T16:28:02.592Z,27.38
2023-03-12T16:30:36.680Z,27.28
2023-03-12T16:33:09.152Z,27.19
2023-03-12T16:35:38.054Z,27.08
2023-03-12T16:38:06.252Z,27.00
2023-03-12T16:40:37.269Z,26.94
2023-03-12T16:43:13.882Z,26.79
2023-03-12T16:45:44.879Z,26.72
2023-03-12T16:48:17.798Z,26.65
2023-03-12T16:50:48.859Z,26.58
2023-03-12T16:53:18.937Z,26.52
2023-03-12T16:55:55.251Z,26.48
2023-03-12T16:58:25.086Z,26.41
2023-03-12T17:00:54.999Z,26.32
2023-03-12T17:03:37.391Z,26.11
2023-03-12T17:06:08.461Z,25.94
2023-03-12T17:08:36.687Z,25.79
2023-03-12T17:11:16.897Z,25.65
2023-03-12T17:13:47.572Z,25.51
2023-03-12T17:16:15.708Z,25.37
2023-03-12T17:18:44.107Z,25.27
2023-03-12T17:21:17.695Z,25.16
2023-03-12T17:23:47.893Z,25.08
2023-03-12T17:26:17.604Z,25.01
2023-03-12T17:28:45.987Z,24.94
2023-03-12T17:31:14.219Z,24.84
2023-03-12T17:33:42.784Z,24.73
2023-03-12T17:36:11.688Z,24.68
2023-03-12T17:38:40.081Z,24.59
2023-03-12T17:41:19.842Z,24.48
2023-03-12T17:43:55.095Z,24.41
2023-03-12T17:46:23.510Z,24.34
2023-03-12T17:48:52.850Z,24.21
2023-03-12T17:51:21.116Z,24.05
2023-03-12T17:53:50.055Z,23.99
2023-03-12T17:56:18.219Z,23.92
2023-03-12T17:58:47.124Z,23.85
2023-03-12T18:01:16.513Z,23.75
2023-03-12T18:03:45.269Z,23.64
2023-03-12T18:06:13.591Z,23.53
2023-03-12T18:08:41.874Z,23.50
2023-03-12T18:11:10.042Z,23.47
2023-03-12T18:13:40.758Z,23.38
2023-03-12T18:16:10.170Z,23.29
2023-03-12T18:18:38.984Z,23.24
2023-03-12T18:21:07.210Z,23.23
2023-03-12T18:23:35.440Z,23.20
2023-03-12T18:26:04.826Z,23.19
2023-03-12T18:28:33.040Z,23.13
2023-03-12T18:31:01.578Z,23.04
2023-03-12T18:33:30.828Z,22.98
2023-03-12T18:35:58.977Z,22.94
2023-03-12T18:38:27.790Z,22.87
2023-03-12T18:41:09.735Z,22.81
2023-03-12T18:43:39.113Z,22.66
2023-03-12T18:46:09.000Z,22.50
2023-03-12T18:48:37.472Z,22.41
2023-03-12T18:51:05.981Z,22.38
2023-03-12T18:53:34.108Z,22.38
2023-03-12T18:56:02.264Z,22.40
2023-03-12T18:58:30.424Z,22.38
2023-03-12T19:00:59.636Z,22.36
2023-03-12T19:03:28.124Z,22.29
2023-03-12T19:06:06.732Z,22.26
2023-03-12T19:08:35.688Z,22.23
2023-03-12T19:11:06.309Z,22.20
2023-03-12T19:13:34.970Z,22.18
2023-03-12T19:16:06.301Z,22.13
2023-03-12T19:18:35.381Z,22.14
2023-03-12T19:21:04.578Z,22.11
2023-03-12T19:23:32.665Z,22.10
2023-03-12T19:26:01.057Z,22.07
2023-03-12T19:28:29.843Z,22.00
2023-03-12T19:31:03.417Z,22.01
2023-03-12T19:33:32.344Z,22.03
2023-03-12T19:36:00.630Z,22.02
2023-03-12T19:38:29.963Z,22.02
2023-03-12T19:40:59.609Z,22.00
2023-03-12T19:43:27.813Z,21.99
2023-03-12T19:45:56.958Z,21.98
2023-03-12T19:48:25.200Z,21.95
2023-03-12T19:50:53.773Z,21.91
2023-03-12T19:53:22.998Z,21.92
2023-03-12T19:55:52.206Z,21.90
2023-03-12T19:58:21.703Z,21.89
2023-03-12T20:00:51.327Z,21.89
2023-03-12T20:03:19.604Z,21.86
2023-03-12T20:05:47.885Z,21.83
2023-03-12T20:08:16.137Z,21.83
2023-03-12T20:10:45.418Z,21.84
2023-03-12T20:13:14.219Z,21.84
2023-03-12T20:15:42.339Z,21.82
2023-03-12T20:18:10.978Z,21.80
2023-03-12T20:20:39.136Z,21.81
2023-03-12T20:23:07.346Z,21.81
2023-03-12T20:25:39.680Z,21.79
2023-03-12T20:28:11.181Z,21.78
2023-03-12T20:30:39.916Z,21.76
2023-03-12T20:33:09.056Z,21.77
2023-03-12T20:35:37.906Z,21.78
2023-03-12T20:38:06.093Z,21.76
2023-03-12T20:40:34.755Z,21.71
2023-03-12T20:43:03.676Z,21.69
2023-03-12T20:45:33.786Z,21.69
2023-03-12T20:48:02.165Z,21.69
2023-03-12T20:50:30.338Z,21.71
2023-03-12T20:52:58.514Z,21.71
2023-03-12T20:55:27.211Z,21.68
2023-03-12T20:57:55.506Z,21.64
2023-03-12T21:00:23.707Z,21.61
2023-03-12T21:02:52.085Z,21.63
2023-03-12T21:05:22.151Z,21.62
2023-03-12T21:07:52.505Z,21.62
2023-03-12T21:10:21.348Z,21.62
2023-03-12T21:12:49.470Z,21.62
2023-03-12T21:15:18.095Z,21.62
2023-03-12T21:17:46.236Z,21.60
2023-03-12T21:20:15.262Z,21.60
2023-03-12T21:22:44.315Z,21.60
2023-03-12T21:25:12.946Z,21.60
2023-03-12T21:27:50.618Z,21.54
2023-03-12T21:30:19.872Z,21.50
2023-03-12T21:32:48.213Z,21.52
2023-03-12T21:35:16.763Z,21.54
2023-03-12T21:37:45.008Z,21.55
2023-03-12T21:40:14.600Z,21.55
2023-03-12T21:42:43.124Z,21.53
2023-03-12T21:45:13.795Z,21.48
2023-03-12T21:47:41.901Z,21.47
2023-03-12T21:50:11.092Z,21.45
2023-03-12T21:52:43.091Z,21.46
2023-03-12T21:55:11.726Z,21.45
2023-03-12T21:57:40.261Z,21.42
2023-03-12T22:00:11.463Z,21.40
2023-03-12T22:02:45.006Z,21.39
2023-03-12T22:05:13.338Z,21.35
2023-03-12T22:07:41.401Z,21.28
2023-03-12T22:10:10.694Z,21.22
2023-03-12T22:12:39.989Z,21.18
2023-03-12T22:15:08.969Z,21.12
2023-03-12T22:17:37.492Z,21.05
2023-03-12T22:20:06.082Z,21.05
2023-03-12T22:22:34.250Z,21.03
2023-03-12T22:25:02.985Z,21.01
2023-03-12T22:27:31.233Z,20.98
2023-03-12T22:29:59.803Z,20.91
2023-03-12T22:32:28.665Z,20.89
2023-03-12T22:34:57.063Z,20.88
2023-03-12T22:37:25.171Z,20.88
2023-03-12T22:39:54.063Z,20.87
2023-03-12T22:42:22.450Z,20.87
2023-03-12T22:44:51.039Z,20.88
2023-03-12T22:47:19.217Z,20.84
2023-03-12T22:49:47.556Z,20.83
2023-03-12T22:52:16.141Z,20.82
2023-03-12T22:54:44.307Z,20.79
2023-03-12T22:57:12.464Z,20.73
2023-03-12T22:59:40.543Z,20.68
2023-03-12T23:02:09.058Z,20.62
2023-03-12T23:04:37.358Z,20.56
2023-03-12T23:07:13.991Z,20.52
2023-03-12T23:09:43.917Z,20.51
2023-03-12T23:12:11.995Z,20.50
2023-03-12T23:14:40.110Z,20.50
2023-03-12T23:17:09.565Z,20.50
2023-03-12T23:19:37.852Z,20.46
2023-03-12T23:22:06.989Z,20.44
2023-03-12T23:24:35.736Z,20.41
2023-03-12T23:27:04.336Z,20.41
2023-03-12T23:29:33.956Z,20.40
2023-03-12T23:32:02.612Z,20.36
2023-03-12T23:34:30.769Z,20.34
2023-03-12T23:36:59.023Z,20.33
2023-03-12T23:39:29.663Z,20.33
2023-03-12T23:41:58.055Z,20.31
2023-03-12T23:44:26.625Z,20.23
2023-03-12T23:46:55.016Z,20.19
2023-03-12T23:49:23.075Z,20.16
2023-03-12T23:51:51.249Z,20.16
2023-03-12T23:54:19.450Z,20.11
2023-03-12T23:56:47.552Z,20.06
2023-03-12T23:59:15.891Z,20.04
